Time;durP1;ratioP1;P1;durP2;ratioP2;P2;SDS_P1;SDS_P2;PMS_P1;PMS_P2;Temp;Humidity;BMP_temperature;BMP_pressure;BME280_temperature;BME280_humidity;BME280_pressure;Samples;Min_cycle;Max_cycle;Signal;HPM_P1;HPM_P2
2021/06/04 00:01:15;;;;;;;3.30;1.98;;;;;;;23.10;32.49;99970.59;1705650;83;21043;-35
2021/06/04 00:03:43;;;;;;;4.28;1.80;;;;;;;23.09;32.62;99969.36;1753780;81;21049;-35
2021/06/04 00:06:11;;;;;;;5.47;2.33;;;;;;;23.10;32.68;99972.39;1753425;81;21381;-35
2021/06/04 00:08:39;;;;;;;2.77;1.77;;;;;;;23.10;32.70;99973.73;1724914;81;21039;-34
2021/06/04 00:11:15;;;;;;;4.45;2.08;;;;;;;23.10;32.79;99977.30;1753412;81;21074;-34
2021/06/04 00:13:47;;;;;;;4.53;1.90;;;;;;;23.08;32.84;99976.57;1753427;81;21494;-36
2021/06/04 00:16:30;;;;;;;6.03;2.00;;;;;;;23.07;32.89;99974.01;1748568;80;21137;-35
2021/06/04 00:18:59;;;;;;;3.70;1.90;;;;;;;23.04;32.95;99971.53;1721286;81;21051;-34
2021/06/04 00:21:32;;;;;;;4.70;2.52;;;;;;;23.03;33.01;99972.49;1751176;81;21572;-35
2021/06/04 00:24:00;;;;;;;2.00;1.75;;;;;;;23.02;33.11;99966.78;1753659;80;21090;-34
2021/06/04 00:26:28;;;;;;;4.80;2.20;;;;;;;22.98;33.20;99975.06;1724914;81;21617;-35
2021/06/04 00:28:57;;;;;;;2.58;1.67;;;;;;;22.95;33.30;99963.73;1758470;80;21043;-35
2021/06/04 00:31:25;;;;;;;4.60;1.70;;;;;;;22.93;33.37;99965.66;1716958;82;21030;-35
2021/06/04 00:33:52;;;;;;;2.33;1.90;;;;;;;22.91;33.40;99966.27;1723416;81;21067;-34
2021/06/04 00:36:24;;;;;;;2.30;1.65;;;;;;;22.92;33.49;99970.17;1753432;80;20975;-34
2021/06/04 00:38:55;;;;;;;4.72;1.98;;;;;;;22.94;33.56;99967.38;1753421;80;21027;-34
2021/06/04 00:41:44;;;;;;;4.10;1.77;;;;;;;22.91;33.65;99965.77;1753547;80;21553;-34
2021/06/04 00:44:12;;;;;;;2.50;1.87;;;;;;;22.87;33.75;99968.84;1740180;80;21191;-34
2021/06/04 00:46:42;;;;;;;3.05;1.62;;;;;;;22.85;33.83;99966.28;1753524;80;21518;-34
2021/06/04 00:49:10;;;;;;;2.05;1.80;;;;;;;22.87;33.81;99968.34;1753450;80;21636;-34
2021/06/04 00:51:50;;;;;;;4.67;2.00;;;;;;;22.87;33.79;99967.00;1720788;81;21079;-35
2021/06/04 00:54:19;;;;;;;3.60;1.85;;;;;;;22.88;33.85;99966.51;1721129;80;21048;-35
2021/06/04 00:56:48;;;;;;;2.70;1.70;;;;;;;22.91;33.79;99965.77;1699135;81;21070;-35
2021/06/04 00:59:26;;;;;;;2.75;1.70;;;;;;;22.95;33.81;99962.39;1748851;80;21041;-34
2021/06/04 01:01:49;;;;;;;4.55;1.72;;;;;;;22.99;33.80;99966.02;1752921;81;21071;-34
2021/06/04 01:04:17;;;;;;;2.12;1.75;;;;;;;22.98;33.81;99961.66;1722086;81;21034;-34
2021/06/04 01:06:55;;;;;;;2.17;1.67;;;;;;;23.00;33.82;99961.53;1753840;80;21031;-34
2021/06/04 01:09:48;;;;;;;4.45;1.90;;;;;;;23.03;33.81;99967.12;1753467;81;21143;-34
2021/06/04 01:12:50;;;;;;;3.80;1.65;;;;;;;23.02;33.82;99964.09;1745989;80;20999;-34
2021/06/04 01:15:43;;;;;;;4.03;1.55;;;;;;;23.03;33.78;99968.47;1733821;80;21011;-34
2021/06/04 01:18:40;;;;;;;3.80;1.98;;;;;;;23.02;33.83;99977.52;1753591;81;21026;-35
2021/06/04 01:21:16;;;;;;;2.10;1.90;;;;;;;23.02;33.85;99968.13;1753781;80;23442;-35
2021/06/04 01:24:15;;;;;;;2.10;2.00;;;;;;;22.98;33.74;99962.12;1733632;81;20996;-34
2021/06/04 01:26:54;;;;;;;3.65;2.05;;;;;;;22.95;33.88;99968.59;1744476;80;21011;-35
2021/06/04 01:29:26;;;;;;;2.92;1.75;;;;;;;22.94;33.88;99965.54;1764555;80;21010;-34
2021/06/04 01:31:59;;;;;;;2.80;1.80;;;;;;;22.94;33.92;99973.59;1726899;80;21078;-34
2021/06/04 01:34:37;;;;;;;2.70;1.65;;;;;;;22.95;33.90;99971.28;1753815;80;21018;-34
2021/06/04 01:37:21;;;;;;;2.25;1.80;;;;;;;22.98;33.90;99971.05;1753514;80;21037;-35
2021/06/04 01:39:55;;;;;;;4.42;2.02;;;;;;;22.99;33.89;99972.73;1754831;80;21110;-35
2021/06/04 01:42:27;;;;;;;2.00;1.80;;;;;;;23.02;33.88;99972.15;1693922;83;21039;-34
2021/06/04 01:45:09;;;;;;;5.60;1.70;;;;;;;23.02;33.95;99974.83;1753170;80;21030;-34
2021/06/04 01:47:48;;;;;;;2.22;1.77;;;;;;;23.00;33.97;99973.11;1742227;80;21066;-34
2021/06/04 01:50:31;;;;;;;2.75;1.90;;;;;;;23.04;33.99;99971.53;1710173;81;21591;-35
2021/06/04 01:53:02;;;;;;;3.40;1.75;;;;;;;23.06;34.06;99976.28;1714698;81;20946;-35
2021/06/04 01:55:33;;;;;;;2.80;1.67;;;;;;;23.07;34.07;99972.66;1732244;80;21281;-35
2021/06/04 01:58:06;;;;;;;2.72;1.80;;;;;;;23.08;34.09;99979.72;1715692;80;21089;-34
2021/06/04 02:00:39;;;;;;;2.95;1.87;;;;;;;23.08;34.16;99973.02;1690198;80;22245;-34
2021/06/04 02:03:12;;;;;;;3.22;1.72;;;;;;;23.09;34.22;99974.73;1730668;80;21156;-35
2021/06/04 02:05:40;;;;;;;5.28;1.80;;;;;;;23.08;34.29;99975.23;1725454;80;21010;-35
2021/06/04 02:08:12;;;;;;;3.72;2.22;;;;;;;23.10;34.31;99980.45;1728244;80;21631;-35
2021/06/04 02:10:45;;;;;;;5.45;2.00;;;;;;;23.12;34.35;99978.52;1696392;81;21056;-35
2021/06/04 02:13:13;;;;;;;2.47;1.70;;;;;;;23.13;34.43;99982.89;1715048;80;21481;-35
2021/06/04 02:15:45;;;;;;;2.65;2.00;;;;;;;23.14;34.42;99984.11;1747679;80;21153;-35
2021/06/04 02:18:30;;;;;;;2.60;1.85;;;;;;;23.15;34.40;99974.25;1714657;81;21089;-35
2021/06/04 02:21:04;;;;;;;3.02;1.98;;;;;;;23.17;34.41;99983.03;1745483;80;21050;-34
2021/06/04 02:23:54;;;;;;;3.33;2.00;;;;;;;23.17;34.46;99979.00;1735904;80;21537;-34
2021/06/04 02:26:29;;;;;;;1.77;1.67;;;;;;;23.17;34.52;99980.34;1711121;81;21540;-34
2021/06/04 02:29:06;;;;;;;6.00;1.98;;;;;;;23.14;34.50;99981.93;1743114;80;22215;-34
2021/06/04 02:31:53;;;;;;;1.85;1.70;;;;;;;23.13;34.55;99982.89;1763680;80;21478;-34
2021/06/04 02:34:37;;;;;;;3.33;1.70;;;;;;;23.10;34.59;99981.79;1753765;80;21130;-34
2021/06/04 02:37:16;;;;;;;1.67;1.50;;;;;;;23.08;34.59;99987.31;1753180;80;21077;-34
2021/06/04 02:40:13;;;;;;;3.92;1.80;;;;;;;23.09;34.66;99987.66;1753993;80;20978;-34
2021/06/04 02:42:51;;;;;;;3.37;2.27;;;;;;;23.06;34.80;99987.02;1753971;80;21796;-34
2021/06/04 02:45:43;;;;;;;2.62;1.85;;;;;;;23.04;34.87;99980.42;1753310;80;21039;-34
2021/06/04 02:48:16;;;;;;;3.12;1.80;;;;;;;23.06;34.91;99978.97;1753316;80;21058;-35
2021/06/04 02:50:53;;;;;;;3.33;1.72;;;;;;;23.08;34.93;99979.72;1733951;80;20999;-34
2021/06/04 02:53:28;;;;;;;2.40;1.57;;;;;;;23.09;34.93;99978.76;1733742;81;21026;-34
2021/06/04 02:56:13;;;;;;;3.62;1.77;;;;;;;23.12;34.99;99979.86;1696882;83;21097;-34
2021/06/04 02:58:41;;;;;;;;;;;;;;;23.14;35.04;99983.27;1695470;81;21021;-34
2021/06/04 03:01:09;;;;;;;2.67;1.72;;;;;;;23.16;35.13;99983.99;1722714;82;20176;-34
2021/06/04 03:03:38;;;;;;;2.98;2.00;;;;;;;23.18;35.15;99988.75;1730936;80;21880;-34
2021/06/04 03:06:05;;;;;;;2.87;2.00;;;;;;;23.18;35.21;99988.75;1706850;81;21085;-34
2021/06/04 03:08:35;;;;;;;2.37;2.10;;;;;;;23.21;35.22;99995.72;1743560;81;21958;-35
2021/06/04 03:11:05;;;;;;;7.22;2.05;;;;;;;23.23;35.25;99992.41;1682779;82;21058;-34
2021/06/04 03:13:34;;;;;;;2.33;2.12;;;;;;;23.25;35.29;99989.98;1733069;81;21497;-34
2021/06/04 03:16:07;;;;;;;2.83;1.90;;;;;;;23.27;35.37;99993.39;1733652;81;21049;-35
2021/06/04 03:18:41;;;;;;;4.73;2.37;;;;;;;23.23;35.49;99994.59;1720210;81;21026;-34
2021/06/04 03:21:14;;;;;;;4.17;2.03;;;;;;;23.22;35.55;99986.66;1712269;81;21798;-34
2021/06/04 03:23:43;;;;;;;5.35;2.05;;;;;;;23.21;35.61;99987.16;1707272;81;21337;-34
2021/06/04 03:26:21;;;;;;;3.00;2.00;;;;;;;23.21;35.60;99985.82;1707537;81;21094;-35
2021/06/04 03:28:49;;;;;;;5.53;2.33;;;;;;;23.24;35.53;99988.27;1708075;81;21046;-34
2021/06/04 03:31:19;;;;;;;6.20;2.10;;;;;;;23.32;35.66;99993.03;1732346;81;21121;-34
2021/06/04 03:33:49;;;;;;;3.77;2.08;;;;;;;23.34;35.71;99989.23;1743957;80;21131;-34
2021/06/04 03:36:21;;;;;;;5.08;2.12;;;;;;;23.39;35.58;99994.73;1718954;82;21056;-34
2021/06/04 03:38:48;;;;;;;3.98;2.30;;;;;;;23.45;35.53;99988.84;1721047;81;21047;-34
2021/06/04 03:41:17;;;;;;;6.20;2.27;;;;;;;23.51;35.35;99993.73;1751837;80;21082;-34
2021/06/04 03:43:48;;;;;;;2.00;1.80;;;;;;;23.58;35.27;99990.91;1746582;80;21988;-34
2021/06/04 03:46:15;;;;;;;2.77;1.82;;;;;;;23.61;35.14;99993.34;1749671;81;21604;-34
2021/06/04 03:48:42;;;;;;;2.20;2.00;;;;;;;23.67;35.12;99984.80;1747875;80;21121;-35
2021/06/04 03:51:14;;;;;;;3.37;2.27;;;;;;;23.68;35.10;99985.14;1711554;82;21608;-35
2021/06/04 03:53:41;;;;;;;5.17;2.10;;;;;;;23.72;35.23;99989.30;1745904;80;21054;-35
2021/06/04 03:56:08;;;;;;;5.97;2.33;;;;;;;23.74;35.33;99987.33;1742990;80;21025;-35
2021/06/04 03:58:35;;;;;;;3.52;1.90;;;;;;;23.80;35.48;99989.98;1751800;80;21120;-35
2021/06/04 04:01:07;;;;;;;4.15;2.02;;;;;;;23.82;35.53;99991.24;1739629;80;21038;-35
2021/06/04 04:03:34;;;;;;;3.58;2.15;;;;;;;23.84;35.51;99995.52;1740682;81;21069;-34
2021/06/04 04:06:01;;;;;;;2.22;2.02;;;;;;;23.91;35.47;99994.53;1713510;82;21099;-35
2021/06/04 04:08:29;;;;;;;5.42;2.65;;;;;;;24.00;35.44;99994.25;1735042;81;21188;-35
2021/06/04 04:10:56;;;;;;;4.60;2.00;;;;;;;24.12;35.32;99987.84;1708320;82;21842;-36
2021/06/04 04:13:23;;;;;;;5.72;2.60;;;;;;;24.25;35.18;99986.33;1737879;80;21028;-35
2021/06/04 04:15:50;;;;;;;6.42;2.08;;;;;;;24.34;35.31;99985.53;1683921;83;21051;-35
2021/06/04 04:18:18;;;;;;;4.60;2.00;;;;;;;24.39;35.24;99987.33;1744721;82;22018;-34
2021/06/04 04:20:50;;;;;;;3.83;2.33;;;;;;;24.54;35.14;99988.37;1748009;82;20990;-35
2021/06/04 04:23:22;;;;;;;8.75;3.00;;;;;;;24.61;35.00;99989.57;1748451;80;21097;-35
2021/06/04 04:25:48;;;;;;;4.10;2.25;;;;;;;24.60;34.87;99986.03;1740528;80;21015;-35
2021/06/04 04:28:20;;;;;;;5.25;2.42;;;;;;;24.66;34.88;99985.52;1746285;80;21486;-35
2021/06/04 04:30:46;;;;;;;7.12;2.42;;;;;;;24.68;34.92;99984.05;1767156;80;21074;-36
2021/06/04 04:33:15;;;;;;;7.62;2.27;;;;;;;24.63;34.85;99988.97;1733773;80;21514;-35
2021/06/04 04:35:42;;;;;;;4.83;2.58;;;;;;;24.48;34.90;99989.75;1735367;80;21150;-34
2021/06/04 04:38:09;;;;;;;4.28;2.20;;;;;;;24.35;35.17;99989.09;1752090;80;21020;-36
2021/06/04 04:40:38;;;;;;;5.75;2.27;;;;;;;24.28;35.34;99981.53;1748426;80;21074;-36
2021/06/04 04:43:07;;;;;;;2.45;2.15;;;;;;;24.23;35.42;99995.02;1746221;80;21623;-36
2021/06/04 04:45:34;;;;;;;5.47;2.25;;;;;;;24.18;35.57;99998.59;1725184;80;21046;-36
2021/06/04 04:48:00;;;;;;;3.75;2.60;;;;;;;24.13;35.70;99997.62;1741947;80;21533;-34
2021/06/04 04:50:28;;;;;;;5.03;2.60;;;;;;;23.99;35.91;99992.06;1730251;80;21066;-35
2021/06/04 04:52:55;;;;;;;3.67;2.22;;;;;;;23.90;36.23;99995.50;1708381;81;21066;-35
2021/06/04 04:55:24;;;;;;;3.33;2.45;;;;;;;23.85;36.26;99993.19;1719820;80;21098;-34
2021/06/04 04:57:51;;;;;;;2.90;2.55;;;;;;;23.85;36.38;99996.38;1716262;81;21599;-35
2021/06/04 05:00:23;;;;;;;9.48;2.62;;;;;;;23.87;36.51;99999.78;1739685;80;21135;-34
2021/06/04 05:02:51;;;;;;;3.77;2.37;;;;;;;23.89;36.55;100001.88;1725583;82;21094;-34
2021/06/04 05:05:21;;;;;;;7.20;2.92;;;;;;;23.90;36.59;100001.72;1717278;81;21564;-33
2021/06/04 05:07:48;;;;;;;3.30;2.05;;;;;;;23.91;36.73;100004.78;1724391;80;21597;-35
2021/06/04 05:10:16;;;;;;;3.72;2.52;;;;;;;23.90;36.62;100006.25;1695661;81;21030;-35
2021/06/04 05:12:42;;;;;;;6.28;2.50;;;;;;;23.87;36.65;100010.53;1721785;81;21150;-35
2021/06/04 05:15:13;;;;;;;4.47;2.50;;;;;;;23.84;36.71;100012.99;1719486;81;21062;-35
2021/06/04 05:17:43;;;;;;;11.60;2.50;;;;;;;23.78;36.72;100009.92;1731308;81;21059;-35
2021/06/04 05:20:12;;;;;;;6.28;2.60;;;;;;;23.70;36.84;100002.02;1730972;81;21533;-33
2021/06/04 05:22:39;;;;;;;5.72;2.60;;;;;;;23.69;37.02;100001.63;1726758;81;21081;-33
2021/06/04 05:25:10;;;;;;;6.50;2.95;;;;;;;23.68;37.11;100001.26;1725848;81;21968;-35
2021/06/04 05:27:37;;;;;;;9.63;2.45;;;;;;;23.68;37.23;100006.63;1717810;81;21370;-35
2021/06/04 05:30:09;;;;;;;4.83;2.20;;;;;;;23.64;37.41;100011.91;1714544;81;21525;-35
2021/06/04 05:32:36;;;;;;;8.35;2.33;;;;;;;23.60;36.88;100013.11;1726265;81;21101;-34
2021/06/04 05:35:05;;;;;;;6.87;2.47;;;;;;;23.52;36.77;100004.85;1725169;81;21086;-36
2021/06/04 05:37:32;;;;;;;8.88;2.85;;;;;;;23.37;36.97;100007.78;1731938;81;21004;-33
2021/06/04 05:40:00;;;;;;;4.92;2.37;;;;;;;23.23;36.83;100008.02;1696238;83;21058;-33
2021/06/04 05:42:27;;;;;;;8.50;2.20;;;;;;;23.07;36.45;100004.88;1703979;81;20960;-33
2021/06/04 05:44:53;;;;;;;5.20;2.20;;;;;;;22.99;36.65;100007.62;1692926;82;22286;-33
2021/06/04 05:47:21;;;;;;;6.40;2.17;;;;;;;22.96;36.62;100003.86;1741003;80;21035;-34
2021/06/04 05:49:50;;;;;;;8.80;2.45;;;;;;;22.96;36.47;100013.25;1729999;81;21150;-34
2021/06/04 05:52:17;;;;;;;3.45;2.20;;;;;;;22.97;36.54;100006.89;1713080;80;21011;-33
2021/06/04 05:54:46;;;;;;;6.75;2.40;;;;;;;22.98;36.35;100009.95;1718569;82;21054;-33
2021/06/04 05:57:13;;;;;;;4.60;2.25;;;;;;;22.99;36.18;100008.96;1719338;80;21021;-34
2021/06/04 05:59:40;;;;;;;6.45;2.50;;;;;;;22.99;36.17;100008.96;1710315;80;21007;-34
2021/06/04 06:02:10;;;;;;;15.43;2.60;;;;;;;23.02;36.01;100005.69;1714490;80;21125;-37
2021/06/04 06:04:39;;;;;;;7.17;2.20;;;;;;;23.05;35.82;100009.45;1707308;80;21074;-35
2021/06/04 06:07:06;;;;;;;9.23;2.40;;;;;;;23.06;35.78;100009.83;1724947;80;21990;-35
2021/06/04 06:09:34;;;;;;;7.75;2.45;;;;;;;23.07;35.70;100010.23;1709846;80;21046;-36
2021/06/04 06:12:00;;;;;;;22.32;13.83;;;;;;;23.07;35.38;100013.77;1735961;80;21046;-36
2021/06/04 06:14:27;;;;;;;13.00;6.70;;;;;;;23.13;35.15;100013.76;1733662;80;23092;-37
2021/06/04 06:16:53;;;;;;;9.83;4.47;;;;;;;23.21;34.73;100014.50;1720717;80;21495;-34
2021/06/04 06:19:21;;;;;;;17.73;4.40;;;;;;;23.25;34.40;100011.46;1734951;80;21055;-35
2021/06/04 06:21:51;;;;;;;9.85;4.15;;;;;;;23.28;34.40;100012.53;1730535;80;21117;-34
2021/06/04 06:24:20;;;;;;;8.13;3.22;;;;;;;23.33;34.44;100011.70;1718056;80;21540;-35
2021/06/04 06:26:48;;;;;;;7.40;2.72;;;;;;;23.37;34.38;100013.16;1732920;80;21493;-34
2021/06/04 06:29:16;;;;;;;6.78;2.60;;;;;;;23.40;33.73;100005.82;1717388;81;21208;-33
2021/06/04 06:31:44;;;;;;;7.55;3.00;;;;;;;23.36;33.52;100011.44;1707442;81;21023;-34
2021/06/04 06:34:12;;;;;;;9.10;2.87;;;;;;;23.37;34.00;100008.28;1702111;82;21046;-34
2021/06/04 06:36:41;;;;;;;7.55;2.92;;;;;;;23.44;34.18;100009.98;1704829;81;21054;-36
2021/06/04 06:39:11;;;;;;;5.15;2.67;;;;;;;23.52;34.18;100007.54;1700955;83;21114;-35
2021/06/04 06:41:41;;;;;;;8.30;3.00;;;;;;;23.60;34.18;100009.08;1704255;80;21078;-34
2021/06/04 06:44:09;;;;;;;7.70;2.47;;;;;;;23.68;34.32;100009.81;1744450;80;21051;-34
2021/06/04 06:46:37;;;;;;;6.92;2.47;;;;;;;23.77;34.28;100010.89;1745711;80;21651;-34
2021/06/04 06:49:06;;;;;;;4.87;2.67;;;;;;;23.85;34.31;100011.15;1744945;80;21093;-33
2021/06/04 06:51:33;;;;;;;36.65;20.12;;;;;;;23.90;34.34;100007.59;1732409;80;21145;-36
2021/06/04 06:54:00;;;;;;;16.90;7.67;;;;;;;23.97;33.65;100011.97;1724564;81;21085;-35
2021/06/04 06:56:27;;;;;;;9.53;4.30;;;;;;;24.00;33.27;100013.91;1743875;80;21489;-35
2021/06/04 06:58:54;;;;;;;16.73;3.58;;;;;;;24.00;32.52;100025.16;1743380;80;20991;-35
2021/06/04 07:01:21;;;;;;;8.15;2.58;;;;;;;23.85;31.73;100017.37;1745699;80;21066;-36
2021/06/04 07:03:48;;;;;;;5.22;2.40;;;;;;;23.68;32.07;100005.78;1744715;80;21088;-38
2021/06/04 07:06:26;;;;;;;10.65;2.40;;;;;;;23.62;32.23;100012.52;1735765;80;20999;-37
2021/06/04 07:08:53;;;;;;;9.75;2.30;;;;;;;23.53;32.41;100002.52;1740274;80;21090;-37
2021/06/04 07:11:23;;;;;;;15.15;2.58;;;;;;;23.52;32.80;100011.07;1740277;80;21513;-37
2021/06/04 07:13:51;;;;;;;5.67;2.47;;;;;;;23.60;32.98;100006.90;1741910;80;21102;-38
2021/06/04 07:16:18;;;;;;;4.70;2.58;;;;;;;23.68;33.08;100004.44;1720145;80;21731;-35
2021/06/04 07:18:45;;;;;;;6.67;2.35;;;;;;;23.78;33.15;100007.23;1745577;82;21027;-34
2021/06/04 07:21:13;;;;;;;4.30;2.40;;;;;;;23.85;33.24;100007.96;1743248;80;21026;-35
2021/06/04 07:23:40;;;;;;;3.27;1.82;;;;;;;23.93;33.28;100003.31;1721189;81;21652;-34
2021/06/04 07:26:07;;;;;;;5.05;2.27;;;;;;;24.00;32.93;100009.87;1724596;81;21522;-36
2021/06/04 07:28:35;;;;;;;2.75;1.87;;;;;;;24.05;33.13;100004.97;1722304;81;21841;-37
2021/06/04 07:31:05;;;;;;;6.58;2.27;;;;;;;24.13;33.14;100003.00;1724213;81;21030;-37
2021/06/04 07:33:36;;;;;;;4.72;2.10;;;;;;;24.20;33.17;99997.96;1702130;81;21087;-35
2021/06/04 07:36:07;;;;;;;6.17;1.77;;;;;;;24.26;33.02;99996.95;1718484;81;21581;-35
2021/06/04 07:38:35;;;;;;;4.03;1.80;;;;;;;24.33;32.94;99997.28;1702394;81;21116;-35
2021/06/04 07:41:02;;;;;;;6.47;1.92;;;;;;;24.39;32.96;99994.05;1722162;81;21160;-34
2021/06/04 07:43:31;;;;;;;4.45;2.37;;;;;;;24.45;32.90;99988.67;1701003;82;21620;-33
2021/06/04 07:45:59;;;;;;;9.98;2.02;;;;;;;24.53;32.85;99983.95;1739935;80;21521;-33
2021/06/04 07:48:25;;;;;;;6.30;2.00;;;;;;;24.58;32.62;99983.10;1711086;81;21634;-34
2021/06/04 07:50:54;;;;;;;4.92;1.90;;;;;;;24.63;32.75;99981.74;1679840;83;21886;-36
2021/06/04 07:53:24;;;;;;;2.33;1.80;;;;;;;24.68;32.61;99978.66;1686109;83;21089;-34
2021/06/04 07:55:52;;;;;;;4.70;2.00;;;;;;;24.73;32.32;99981.80;1693460;82;21103;-35
2021/06/04 07:58:19;;;;;;;10.32;1.60;;;;;;;24.76;32.54;99984.20;1699398;82;21224;-35
2021/06/04 08:00:46;;;;;;;5.45;1.40;;;;;;;24.80;30.96;99996.42;1667727;82;21086;-35
2021/06/04 08:03:12;;;;;;;8.30;5.22;;;;;;;24.72;29.35;99986.81;1736629;81;21101;-35
2021/06/04 08:05:39;;;;;;;8.48;5.12;;;;;;;24.57;28.56;99983.60;1719196;81;22274;-34
2021/06/04 08:08:08;;;;;;;12.43;4.75;;;;;;;24.43;28.67;99974.00;1736552;80;20947;-34
2021/06/04 08:10:38;;;;;;;9.98;4.62;;;;;;;24.39;29.12;99975.23;1741929;80;21042;-35
2021/06/04 08:13:06;;;;;;;8.10;4.33;;;;;;;24.42;29.67;99976.31;1746776;80;21081;-34
2021/06/04 08:15:39;;;;;;;10.63;4.60;;;;;;;24.50;29.91;99976.17;1719376;81;21102;-36
2021/06/04 08:18:07;;;;;;;6.43;4.57;;;;;;;24.56;30.07;99975.19;1738156;80;21091;-34
2021/06/04 08:20:36;;;;;;;4.40;3.90;;;;;;;24.63;30.33;99979.55;1705018;82;21054;-35
2021/06/04 08:23:13;;;;;;;7.25;3.80;;;;;;;24.69;30.44;99972.78;1700234;83;21509;-34
2021/06/04 08:25:45;;;;;;;6.95;3.70;;;;;;;24.75;30.57;99971.75;1699305;82;21822;-34
2021/06/04 08:28:12;;;;;;;5.62;3.62;;;;;;;24.81;30.71;99967.67;1686701;83;21070;-34
2021/06/04 08:30:39;;;;;;;6.45;3.15;;;;;;;24.87;30.80;99967.64;1710588;82;21051;-35
2021/06/04 08:33:06;;;;;;;5.22;3.12;;;;;;;24.92;30.75;99970.78;1708332;82;21118;-33
2021/06/04 08:35:33;;;;;;;4.45;3.42;;;;;;;24.96;30.70;99972.20;1704591;82;21373;-35
2021/06/04 08:38:02;;;;;;;4.62;2.67;;;;;;;25.00;30.78;99983.08;1690984;82;21097;-35
2021/06/04 08:40:32;;;;;;;5.30;3.37;;;;;;;25.06;30.85;99979.83;1689726;83;21077;-36
2021/06/04 08:43:32;;;;;;;6.30;2.80;;;;;;;25.09;31.00;99975.52;1730622;80;21726;-34
2021/06/04 08:46:06;;;;;;;4.70;1.95;;;;;;;25.14;31.08;99978.66;1673342;84;20983;-35
2021/06/04 08:48:53;;;;;;;5.30;1.50;;;;;;;25.17;29.36;99975.70;1706255;82;21671;-39
2021/06/04 08:51:41;;;;;;;8.03;1.60;;;;;;;25.06;27.68;99976.30;1698096;84;21060;-38
2021/06/04 08:54:32;;;;;;;72.03;40.83;;;;;;;24.81;27.83;99979.30;1710120;82;21669;-40
2021/06/04 08:57:10;;;;;;;17.57;8.10;;;;;;;24.64;27.53;99983.93;1702678;83;21786;-36
2021/06/04 08:59:38;;;;;;;5.20;3.50;;;;;;;24.57;27.95;99970.16;1704410;82;21060;-35
2021/06/04 09:02:11;;;;;;;6.97;2.20;;;;;;;24.56;27.62;99970.28;1683010;83;20981;-38
2021/06/04 09:04:58;;;;;;;6.73;2.47;;;;;;;24.53;27.89;99981.27;1703617;82;21548;-37
2021/06/04 09:07:28;;;;;;;6.28;1.50;;;;;;;24.52;27.38;99980.42;1696569;83;21035;-37
2021/06/04 09:10:20;;;;;;;14.87;8.83;;;;;;;24.44;27.25;99985.14;1699448;82;21721;-37
2021/06/04 09:12:51;;;;;;;16.05;3.90;;;;;;;24.38;27.22;99978.92;1701835;82;21565;-37
2021/06/04 09:15:22;;;;;;;6.35;2.08;;;;;;;24.38;27.28;99972.70;1710296;82;21106;-36
2021/06/04 09:18:09;;;;;;;5.00;2.00;;;;;;;24.38;26.78;99978.92;1708855;82;21108;-37
2021/06/04 09:20:46;;;;;;;2.33;1.50;;;;;;;24.30;27.02;99962.58;1677502;84;20969;-35
2021/06/04 09:23:15;;;;;;;3.37;1.27;;;;;;;24.22;26.99;99981.20;1695544;83;23280;-36
2021/06/04 09:25:42;;;;;;;3.40;1.30;;;;;;;24.11;27.25;99974.89;1679516;84;20993;-36
2021/06/04 09:28:21;;;;;;;7.78;1.67;;;;;;;23.98;27.19;99976.91;1682091;83;21023;-37
2021/06/04 09:31:22;;;;;;;7.62;1.65;;;;;;;23.87;27.18;99972.91;1707105;82;21000;-36
2021/06/04 09:33:58;;;;;;;5.12;1.40;;;;;;;23.83;26.60;99964.75;1708132;82;21089;-37
2021/06/04 09:36:42;;;;;;;3.47;1.45;;;;;;;23.78;26.83;99965.59;1711955;82;21140;-37
2021/06/04 09:39:16;;;;;;;7.95;1.98;;;;;;;23.77;27.15;99968.77;1704619;83;21039;-37
2021/06/04 09:41:46;;;;;;;4.47;1.30;;;;;;;23.77;26.75;99985.36;1682624;83;21781;-38
2021/06/04 09:44:21;;;;;;;7.60;1.98;;;;;;;23.63;26.80;99961.83;1717348;81;21109;-37
2021/06/04 09:47:14;;;;;;;6.50;1.30;;;;;;;23.55;26.94;99953.08;1742753;80;21093;-38
2021/06/04 09:49:46;;;;;;;6.62;1.20;;;;;;;23.49;27.75;99963.47;1746671;80;21939;-38
2021/06/04 09:52:34;;;;;;;7.50;1.50;;;;;;;23.46;27.62;99954.31;1747227;80;21086;-38
2021/06/04 09:55:12;;;;;;;4.47;1.50;;;;;;;23.50;28.00;99951.73;1739413;80;21078;-37
2021/06/04 09:58:15;;;;;;;7.53;1.57;;;;;;;23.58;27.87;99947.92;1750285;80;21006;-38
2021/06/04 10:00:49;;;;;;;5.53;1.40;;;;;;;23.66;27.86;99947.31;1744617;80;21015;-37
2021/06/04 10:07:16;;;;;;;2.92;1.10;;;;;;;23.69;27.32;99969.39;1706343;81;21074;-38
2021/06/04 10:09:45;;;;;;;2.25;1.15;;;;;;;23.75;27.14;99957.28;1741748;80;21439;-38
2021/06/04 10:12:34;;;;;;;4.58;1.30;;;;;;;23.82;27.21;99945.09;1753380;80;21047;-37
2021/06/04 10:15:31;;;;;;;8.38;1.02;;;;;;;23.90;27.17;99963.25;1746424;80;21553;-38
2021/06/04 10:20:46;;;;;;;8.33;1.52;;;;;;;24.03;26.99;99950.99;1749370;80;21562;-37
2021/06/04 10:23:22;;;;;;;6.37;1.52;;;;;;;24.09;27.07;99947.30;1740352;81;21063;-37
2021/06/04 10:25:56;;;;;;;3.20;1.20;;;;;;;24.16;27.29;99942.72;1753081;80;21031;-37
2021/06/04 10:28:37;;;;;;;10.78;1.47;;;;;;;24.22;27.15;99947.59;1727557;80;21109;-37
2021/06/04 10:31:20;;;;;;;7.80;1.32;;;;;;;24.28;27.12;99949.77;1751430;80;21596;-36
2021/06/04 10:34:01;;;;;;;7.30;0.95;;;;;;;24.33;26.98;99950.73;1752216;80;21000;-35
2021/06/04 10:36:34;;;;;;;6.40;1.17;;;;;;;24.34;26.73;99942.50;1729840;81;21066;-38
2021/06/04 10:39:09;;;;;;;6.45;1.00;;;;;;;24.33;26.32;99950.73;1714509;81;21046;-38
2021/06/04 10:42:11;;;;;;;2.80;0.90;;;;;;;24.23;25.94;99941.24;1752502;80;21054;-38
2021/06/04 10:45:15;;;;;;;6.17;1.17;;;;;;;24.09;26.37;99939.23;1745646;80;21153;-39
2021/06/04 10:48:38;;;;;;;4.30;1.37;;;;;;;23.93;26.59;99945.53;1746291;81;21035;-38
2021/06/04 10:51:56;;;;;;;5.05;1.40;;;;;;;23.70;26.50;99934.84;1741160;81;22136;-38
2021/06/04 10:55:00;;;;;;;11.70;1.57;;;;;;;23.58;26.94;99938.53;1742783;81;21377;-38
2021/06/04 10:57:49;;;;;;;12.98;1.45;;;;;;;23.47;27.38;99942.11;1748746;80;21050;-38
2021/06/04 11:00:20;;;;;;;7.80;1.15;;;;;;;23.32;26.99;99941.52;1745819;81;21758;-37
2021/06/04 11:03:07;;;;;;;7.20;1.72;;;;;;;23.22;27.32;99943.25;1745128;81;21022;-38
2021/06/04 11:05:51;;;;;;;8.43;1.25;;;;;;;23.10;27.23;99949.12;1743804;81;22117;-38
2021/06/04 11:08:42;;;;;;;4.90;1.17;;;;;;;22.99;27.30;99946.39;1747077;81;21043;-39
2021/06/04 11:11:28;;;;;;;5.83;1.30;;;;;;;22.89;27.27;99935.53;1737174;80;20976;-38
2021/06/04 11:14:30;;;;;;;3.05;1.02;;;;;;;22.86;27.19;99942.98;1742971;81;21134;-38
2021/06/04 11:17:22;;;;;;;4.83;1.20;;;;;;;22.78;27.44;99942.26;1748620;81;21561;-39
2021/06/04 11:20:09;;;;;;;4.37;1.17;;;;;;;22.82;27.41;99938.34;1707219;83;21455;-38
2021/06/04 11:22:59;;;;;;;8.55;1.17;;;;;;;22.91;27.53;99940.78;1711680;82;21048;-38
2021/06/04 11:26:01;;;;;;;4.87;1.25;;;;;;;22.99;27.47;99932.48;1696310;83;21060;-38
2021/06/04 11:29:04;;;;;;;7.45;1.55;;;;;;;23.12;27.65;99934.23;1697575;83;21795;-39
2021/06/04 11:32:12;;;;;;;2.77;1.20;;;;;;;23.18;27.44;99944.45;1711961;82;21030;-39
2021/06/04 11:35:00;;;;;;;7.87;1.37;;;;;;;23.23;27.22;99937.38;1709463;82;21057;-39
2021/06/04 11:37:44;;;;;;;6.65;1.30;;;;;;;23.27;27.35;99939.70;1690343;83;21095;-38
2021/06/04 11:40:17;;;;;;;9.00;1.30;;;;;;;23.28;27.26;99942.73;1708545;82;20999;-38
2021/06/04 11:42:54;;;;;;;3.85;1.00;;;;;;;23.27;27.24;99944.23;1685048;83;21067;-37
2021/06/04 11:45:24;;;;;;;7.17;1.00;;;;;;;23.29;27.05;99937.73;1710819;81;21039;-38
2021/06/04 11:47:51;;;;;;;5.30;1.10;;;;;;;23.32;27.18;99937.99;1691725;83;21122;-38
2021/06/04 11:50:31;;;;;;;6.60;1.22;;;;;;;23.33;26.70;99932.50;1691260;83;21306;-39
2021/06/04 11:53:18;;;;;;;3.15;1.40;;;;;;;23.33;26.84;99932.50;1708940;82;21038;-37
2021/06/04 11:55:45;;;;;;;4.87;1.17;;;;;;;23.34;26.98;99932.84;1697055;83;21163;-38
2021/06/04 11:58:32;;;;;;;6.70;1.30;;;;;;;23.34;27.23;99939.56;1714761;82;21097;-38
2021/06/04 12:01:19;;;;;;;8.90;1.30;;;;;;;23.33;27.02;99933.84;1672851;83;22061;-38
2021/06/04 12:04:03;;;;;;;4.67;1.40;;;;;;;23.31;26.92;99938.45;1690135;83;21040;-37
2021/06/04 12:06:44;;;;;;;5.12;1.10;;;;;;;23.30;26.87;99931.41;1678510;84;21058;-37
2021/06/04 12:09:36;;;;;;;6.72;1.20;;;;;;;23.30;26.75;99919.79;1677963;85;21050;-37
2021/06/04 12:12:25;;;;;;;10.23;1.47;;;;;;;23.34;27.06;99927.48;1676044;84;21217;-39